Time;durP1;ratioP1;P1;durP2;ratioP2;P2;SDS_P1;SDS_P2;PMS_P1;PMS_P2;Temp;Humidity;BMP_temperature;BMP_pressure;BME280_temperature;BME280_humidity;BME280_pressure;Samples;Min_cycle;Max_cycle;Signal;HPM_P1;HPM_P2
2022/06/26 00:02:22;;;;;;;26.10;4.53;;;;;;;20.01;55.25;101149.06;5093558;28;20361;-54
2022/06/26 00:04:51;;;;;;;24.67;5.18;;;;;;;19.42;56.74;101143.66;5097261;28;20028;-55
2022/06/26 00:07:17;;;;;;;16.30;5.03;;;;;;;19.92;55.63;101159.59;5096833;28;20016;-55
2022/06/26 00:09:43;;;;;;;20.75;5.55;;;;;;;19.48;56.55;101154.28;5096633;28;20023;-54
2022/06/26 00:12:10;;;;;;;24.55;5.25;;;;;;;19.03;57.18;101156.56;5096351;28;20506;-53
2022/06/26 00:14:36;;;;;;;18.55;4.65;;;;;;;19.56;56.81;101157.63;5096488;28;20028;-49
2022/06/26 00:17:02;;;;;;;16.83;4.95;;;;;;;19.39;57.35;101152.31;5096533;28;20057;-52
2022/06/26 00:19:29;;;;;;;18.80;5.28;;;;;;;19.19;56.94;101159.19;5096376;28;20070;-53
2022/06/26 00:21:55;;;;;;;23.92;4.60;;;;;;;19.30;56.56;101159.28;5096335;28;20028;-52
2022/06/26 00:24:21;;;;;;;19.88;5.07;;;;;;;19.20;57.47;101157.28;5096368;28;20020;-54
2022/06/26 00:26:47;;;;;;;16.10;5.05;;;;;;;19.37;57.11;101159.88;5096250;28;20424;-53
2022/06/26 00:29:13;;;;;;;16.20;4.70;;;;;;;19.09;57.63;101155.53;5096265;28;20032;-51
2022/06/26 00:31:40;;;;;;;21.70;5.60;;;;;;;18.95;58.02;101163.25;5096498;28;20065;-53
2022/06/26 00:34:06;;;;;;;24.80;5.65;;;;;;;18.75;59.29;101168.44;5095949;28;20027;-52
2022/06/26 00:36:32;;;;;;;17.85;5.20;;;;;;;19.11;58.53;101170.50;5095979;28;20058;-53
2022/06/26 00:38:58;;;;;;;19.63;5.25;;;;;;;19.30;57.54;101162.81;5096083;28;20024;-53
2022/06/26 00:41:25;;;;;;;26.80;5.45;;;;;;;19.11;57.89;101148.78;5095929;28;20038;-50
2022/06/26 00:43:51;;;;;;;24.15;5.20;;;;;;;18.93;58.95;101154.53;5095664;28;20047;-54
2022/06/26 00:46:17;;;;;;;30.75;6.15;;;;;;;18.85;58.73;101142.25;5095868;28;20028;-54
2022/06/26 00:48:43;;;;;;;25.42;5.15;;;;;;;18.84;58.85;101156.91;5095806;28;20052;-52
2022/06/26 00:51:10;;;;;;;20.92;5.55;;;;;;;18.55;59.46;101150.81;5096004;28;20105;-54
2022/06/26 00:53:37;;;;;;;27.73;5.80;;;;;;;18.27;60.24;101153.69;5095796;28;20028;-52
2022/06/26 00:56:04;;;;;;;21.25;5.28;;;;;;;18.47;59.75;101160.19;5095763;28;20074;-52
2022/06/26 00:58:30;;;;;;;17.20;5.50;;;;;;;17.99;60.48;101160.00;5095873;28;20028;-52
2022/06/26 01:00:56;;;;;;;23.83;5.63;;;;;;;18.30;60.70;101153.16;5095771;28;20049;-54
2022/06/26 01:03:23;;;;;;;25.55;6.75;;;;;;;18.23;60.63;101166.09;5096016;28;20373;-54
2022/06/26 01:05:49;;;;;;;20.60;5.78;;;;;;;18.11;60.56;101158.88;5095466;28;20024;-56
2022/06/26 01:08:16;;;;;;;23.38;5.35;;;;;;;18.51;60.61;101155.09;5095613;28;20016;-56
2022/06/26 01:10:42;;;;;;;33.33;5.82;;;;;;;18.29;60.04;101154.25;5095396;28;20173;-57
2022/06/26 01:13:09;;;;;;;22.92;5.80;;;;;;;18.29;60.58;101154.25;5094924;28;20088;-54
2022/06/26 01:15:35;;;;;;;22.15;5.70;;;;;;;18.19;61.00;101160.31;5095473;28;20465;-52
2022/06/26 01:18:02;;;;;;;19.65;5.65;;;;;;;18.28;60.29;101155.31;5093986;28;20392;-53
2022/06/26 01:20:28;;;;;;;24.30;5.43;;;;;;;18.07;61.36;101146.88;5095391;28;20178;-54
2022/06/26 01:23:04;;;;;;;23.65;5.78;;;;;;;18.00;61.42;101150.84;5095309;28;20021;-57
2022/06/26 01:25:46;;;;;;;19.75;5.70;;;;;;;17.77;62.27;101144.53;5095821;28;20111;-55
2022/06/26 01:28:13;;;;;;;17.85;4.90;;;;;;;17.97;61.71;101157.56;5093954;28;20086;-54
2022/06/26 01:30:40;;;;;;;26.98;6.20;;;;;;;17.71;62.26;101158.19;5095008;28;20032;-53
2022/06/26 01:33:07;;;;;;;21.05;5.05;;;;;;;17.80;62.44;101157.56;5095515;28;20032;-54
2022/06/26 01:35:33;;;;;;;23.45;5.57;;;;;;;17.76;62.13;101161.00;5095235;28;20020;-54
2022/06/26 01:38:23;;;;;;;18.92;5.50;;;;;;;17.39;63.48;101167.69;5095123;28;20103;-55
2022/06/26 01:40:51;;;;;;;20.17;6.28;;;;;;;17.65;63.08;101166.22;5095678;28;20031;-56
2022/06/26 01:43:20;;;;;;;24.65;5.47;;;;;;;17.75;63.56;101162.06;5094707;28;20054;-52
2022/06/26 01:45:51;;;;;;;16.85;6.00;;;;;;;17.63;62.89;101162.94;5077060;28;20468;-55
2022/06/26 01:48:22;;;;;;;17.10;5.43;;;;;;;17.62;63.47;101160.50;5094824;28;20028;-56
2022/06/26 01:50:49;;;;;;;22.75;4.97;;;;;;;17.60;62.76;101171.56;5077414;28;20028;-52
2022/06/26 01:53:15;;;;;;;25.13;5.95;;;;;;;17.77;61.78;101168.09;5094376;28;20055;-56
2022/06/26 01:55:42;;;;;;;16.77;5.30;;;;;;;17.86;61.60;101166.59;5094586;28;20107;-56
2022/06/26 01:58:09;;;;;;;24.58;5.75;;;;;;;17.74;61.79;101169.38;5094581;28;20016;-56
2022/06/26 02:00:40;;;;;;;22.60;5.53;;;;;;;17.34;63.56;101172.19;5095183;28;20025;-55
2022/06/26 02:03:07;;;;;;;24.52;5.05;;;;;;;17.68;62.66;101159.50;5094697;28;20468;-53
2022/06/26 02:05:33;;;;;;;17.08;4.85;;;;;;;17.59;62.72;101172.63;5094261;28;20067;-54
2022/06/26 02:07:59;;;;;;;22.60;5.85;;;;;;;18.18;60.71;101173.06;5094182;28;20028;-54
2022/06/26 02:15:58;;;;;;;24.75;4.57;;;;;;;18.43;59.15;101178.03;5094217;28;20031;-56
2022/06/26 02:18:25;;;;;;;20.10;5.32;;;;;;;18.35;59.08;101183.88;5095005;28;20380;-56
2022/06/26 02:20:52;;;;;;;23.67;5.72;;;;;;;18.15;60.57;101178.97;5094462;28;20048;-54
2022/06/26 02:23:18;;;;;;;19.08;5.68;;;;;;;18.06;60.48;101183.19;5094263;28;20024;-56
2022/06/26 02:25:45;;;;;;;28.77;6.30;;;;;;;17.86;61.49;101189.06;5093375;28;20020;-55
2022/06/26 02:28:12;;;;;;;21.67;4.95;;;;;;;18.01;61.05;101184.97;5094107;28;20056;-56
2022/06/26 02:30:39;;;;;;;26.58;5.57;;;;;;;18.10;61.10;101195.16;5093950;28;20047;-55
2022/06/26 02:33:05;;;;;;;18.98;5.55;;;;;;;17.97;60.81;101191.94;5094617;28;20111;-56
2022/06/26 02:35:32;;;;;;;16.95;4.93;;;;;;;18.15;60.80;101188.97;5092982;28;20062;-53
2022/06/26 02:37:58;;;;;;;26.27;6.15;;;;;;;18.05;61.22;101202.38;5092764;28;20035;-54
2022/06/26 02:40:26;;;;;;;21.15;5.93;;;;;;;17.42;62.92;101198.81;5094014;28;20024;-55
2022/06/26 02:42:53;;;;;;;19.75;5.22;;;;;;;17.92;61.73;101198.09;5093726;28;20365;-55
2022/06/26 02:45:19;;;;;;;25.27;5.13;;;;;;;18.09;60.50;101193.50;5093615;28;20044;-55
2022/06/26 02:47:46;;;;;;;23.60;5.20;;;;;;;17.86;61.57;101189.06;5093537;28;20508;-54
2022/06/26 02:50:12;;;;;;;17.73;5.70;;;;;;;17.84;61.63;101190.41;5093770;28;20036;-55
2022/06/26 02:52:39;;;;;;;24.40;5.28;;;;;;;17.60;62.20;101205.91;5093448;28;20031;-55
2022/06/26 02:55:06;;;;;;;20.33;5.53;;;;;;;17.41;62.95;101205.31;5093498;28;20032;-53
2022/06/26 02:57:32;;;;;;;18.52;5.05;;;;;;;17.43;62.61;101211.28;5092318;28;20061;-53
2022/06/26 02:59:59;;;;;;;15.50;4.82;;;;;;;17.21;63.14;101203.03;5093322;28;20024;-53
2022/06/26 03:02:25;;;;;;;16.77;4.85;;;;;;;17.12;63.36;101209.91;5093369;28;20533;-54
2022/06/26 03:04:54;;;;;;;22.38;6.10;;;;;;;16.70;65.00;101206.56;5093316;28;20028;-55
2022/06/26 03:07:21;;;;;;;22.73;6.22;;;;;;;16.39;66.11;101200.50;5093302;28;20104;-54
2022/06/26 03:09:47;;;;;;;18.42;5.15;;;;;;;16.33;66.56;101210.34;5093434;28;20020;-55
2022/06/26 03:12:14;;;;;;;28.77;5.75;;;;;;;15.95;67.42;101200.00;5093102;28;20024;-54
2022/06/26 03:14:41;;;;;;;28.17;6.80;;;;;;;15.90;68.53;101221.47;5093177;28;20030;-54
2022/06/26 03:17:07;;;;;;;19.95;5.60;;;;;;;15.91;68.15;101219.59;5091949;28;20045;-54
2022/06/26 03:19:33;;;;;;;24.27;6.40;;;;;;;15.90;68.40;101224.16;5093067;28;20075;-53
2022/06/26 03:22:00;;;;;;;32.55;6.13;;;;;;;15.66;69.60;101225.16;5093345;28;20493;-54
2022/06/26 03:24:26;;;;;;;19.48;6.50;;;;;;;15.60;69.66;101232.25;5093399;28;20047;-55
2022/06/26 03:26:52;;;;;;;31.83;7.70;;;;;;;15.38;70.48;101231.09;5092878;28;20110;-55
2022/06/26 03:29:18;;;;;;;22.40;6.45;;;;;;;15.39;71.26;101232.78;5093045;28;20070;-54
2022/06/26 03:31:44;;;;;;;36.60;8.30;;;;;;;15.26;71.38;101233.75;5093261;28;20031;-54
2022/06/26 03:34:11;;;;;;;29.52;7.72;;;;;;;15.10;72.42;101232.50;5093075;28;20049;-54
2022/06/26 03:36:37;;;;;;;24.67;7.13;;;;;;;15.13;72.22;101232.06;5093848;28;20024;-52
2022/06/26 03:39:04;;;;;;;23.30;6.85;;;;;;;15.15;71.97;101235.34;5097077;28;20093;-54
2022/06/26 03:41:30;;;;;;;31.98;7.20;;;;;;;15.13;71.66;101233.94;5097235;28;20107;-54
2022/06/26 03:43:56;;;;;;;24.48;7.25;;;;;;;15.01;72.09;101237.38;5096920;28;20487;-53
2022/06/26 03:46:22;;;;;;;22.95;6.90;;;;;;;14.83;73.08;101240.09;5097564;28;20103;-54
2022/06/26 03:48:49;;;;;;;28.60;7.13;;;;;;;14.76;73.37;101239.31;5095674;28;20430;-55
2022/06/26 03:51:15;;;;;;;22.25;6.97;;;;;;;14.67;74.14;101238.00;5096396;28;20031;-54
2022/06/26 03:53:41;;;;;;;27.77;7.32;;;;;;;14.82;73.52;101241.13;5096983;28;20494;-54
2022/06/26 03:56:08;;;;;;;32.35;7.03;;;;;;;14.94;73.09;101236.66;5096938;28;20032;-55
2022/06/26 03:58:34;;;;;;;28.20;7.18;;;;;;;14.93;73.23;101234.16;5096931;28;20028;-55
2022/06/26 04:01:00;;;;;;;28.98;7.32;;;;;;;14.73;73.87;101231.72;5096781;28;20051;-55
2022/06/26 04:03:26;;;;;;;23.52;6.35;;;;;;;14.81;73.52;101236.78;5096651;28;20020;-57
2022/06/26 04:05:53;;;;;;;25.48;7.40;;;;;;;14.61;74.33;101236.19;5096853;28;20040;-55
2022/06/26 04:08:19;;;;;;;19.23;6.05;;;;;;;14.63;74.09;101242.16;5096751;28;20034;-52
2022/06/26 04:10:46;;;;;;;29.95;6.68;;;;;;;14.73;73.78;101239.78;5096680;28;20028;-52
2022/06/26 04:13:13;;;;;;;21.55;6.20;;;;;;;14.58;74.45;101236.63;5096537;28;20035;-52
2022/06/26 04:15:40;;;;;;;26.40;6.55;;;;;;;14.72;73.28;101240.84;5096476;28;20103;-54
2022/06/26 04:18:07;;;;;;;27.45;7.90;;;;;;;14.74;74.06;101247.63;5096410;28;20044;-56
2022/06/26 04:20:34;;;;;;;26.67;6.45;;;;;;;14.69;74.19;101250.19;5096803;28;20028;-53
2022/06/26 04:23:11;;;;;;;22.70;7.65;;;;;;;14.42;75.18;101251.44;5096277;28;20021;-53
2022/06/26 04:25:39;;;;;;;28.63;6.80;;;;;;;14.48;75.33;101255.97;5096467;28;20024;-55
2022/06/26 04:28:06;;;;;;;24.98;7.25;;;;;;;14.40;75.93;101256.25;5096328;28;20024;-54
2022/06/26 04:30:33;;;;;;;27.55;7.05;;;;;;;14.53;75.50;101256.97;5096122;28;20070;-56
2022/06/26 04:32:59;;;;;;;22.13;7.13;;;;;;;14.61;75.30;101255.88;5096261;28;20029;-56
2022/06/26 04:35:26;;;;;;;31.75;7.85;;;;;;;14.58;75.40;101258.16;5096041;28;20106;-54
2022/06/26 04:37:52;;;;;;;28.95;7.57;;;;;;;14.72;74.72;101248.94;5096343;28;20033;-53
2022/06/26 04:40:18;;;;;;;28.30;7.40;;;;;;;14.40;76.05;101258.94;5097189;28;20028;-54
2022/06/26 04:42:45;;;;;;;21.83;7.00;;;;;;;14.43;76.35;101266.56;5096374;28;20028;-54
2022/06/26 04:45:12;;;;;;;29.60;8.00;;;;;;;14.33;76.82;101268.94;5095878;28;20076;-55
2022/06/26 04:47:38;;;;;;;23.67;7.18;;;;;;;14.55;75.73;101264.00;5095629;28;20020;-54
2022/06/26 04:50:05;;;;;;;24.15;6.90;;;;;;;14.53;75.25;101261.53;5096547;28;20028;-54
2022/06/26 04:52:31;;;;;;;24.95;7.50;;;;;;;14.47;75.38;101274.00;5095975;28;20115;-55
2022/06/26 04:54:58;;;;;;;24.30;6.88;;;;;;;14.50;75.24;101268.19;5096116;28;20024;-54
2022/06/26 04:57:25;;;;;;;33.63;7.45;;;;;;;14.25;76.40;101278.09;5096078;28;20329;-53
2022/06/26 04:59:51;;;;;;;22.98;6.43;;;;;;;14.38;75.78;101275.31;5095685;28;20042;-53
2022/06/26 05:02:21;;;;;;;27.13;8.35;;;;;;;14.46;75.54;101293.06;5095744;28;20032;-54
2022/06/26 05:04:47;;;;;;;32.28;7.07;;;;;;;14.25;76.97;101294.25;5095598;28;20020;-53
2022/06/26 05:07:14;;;;;;;22.70;7.30;;;;;;;14.23;77.34;101299.06;5095799;28;20522;-55
2022/06/26 05:09:40;;;;;;;23.92;7.28;;;;;;;14.24;77.15;101290.75;5095381;28;20050;-55
2022/06/26 05:12:07;;;;;;;27.10;7.35;;;;;;;14.30;77.04;101302.50;5096136;28;20456;-54
2022/06/26 05:14:33;;;;;;;25.25;7.00;;;;;;;14.32;76.72;101304.97;5095476;28;20032;-53
2022/06/26 05:16:59;;;;;;;26.67;7.90;;;;;;;14.35;76.73;101304.56;5095985;28;20024;-54
2022/06/26 05:19:25;;;;;;;27.00;7.63;;;;;;;14.36;75.95;101298.94;5095090;28;20028;-55
2022/06/26 05:21:53;;;;;;;28.95;7.50;;;;;;;14.17;77.46;101308.00;5095244;28;20115;-54
2022/06/26 05:24:19;;;;;;;24.55;7.15;;;;;;;14.36;76.83;101317.78;5095407;28;20107;-53
2022/06/26 05:26:45;;;;;;;25.90;7.18;;;;;;;14.15;77.50;101318.97;5095070;28;20411;-54
2022/06/26 05:29:11;;;;;;;32.60;8.10;;;;;;;14.29;77.02;101318.91;5095092;28;20070;-53
2022/06/26 05:31:37;;;;;;;22.92;6.30;;;;;;;14.29;76.83;101316.19;5094909;28;20024;-55
2022/06/26 05:34:04;;;;;;;18.98;6.88;;;;;;;14.30;76.94;101331.31;5095114;28;20043;-54
2022/06/26 05:36:30;;;;;;;19.27;6.97;;;;;;;14.28;77.34;101326.16;5095267;28;20036;-53
2022/06/26 05:38:56;;;;;;;31.80;7.72;;;;;;;14.38;76.59;101329.19;5094828;28;20028;-53
2022/06/26 05:41:22;;;;;;;28.90;7.50;;;;;;;14.24;77.20;101330.31;5094755;28;20028;-55
2022/06/26 05:43:48;;;;;;;23.67;7.00;;;;;;;14.30;76.75;101326.75;5094487;28;20048;-54
2022/06/26 05:46:15;;;;;;;27.58;6.65;;;;;;;14.39;76.11;101330.00;5094718;28;20020;-54
2022/06/26 05:48:41;;;;;;;22.65;6.60;;;;;;;14.24;77.11;101338.38;5094693;28;20093;-54
2022/06/26 05:51:07;;;;;;;31.83;8.15;;;;;;;14.27;76.89;101340.66;5094886;28;20023;-54
2022/06/26 05:53:33;;;;;;;20.77;7.07;;;;;;;14.32;76.95;101339.97;5094524;28;20028;-54
2022/06/26 05:56:00;;;;;;;25.20;7.05;;;;;;;14.34;76.35;101337.91;5094537;28;20373;-53
2022/06/26 05:58:26;;;;;;;21.15;7.07;;;;;;;14.22;76.79;101335.94;5094564;28;20026;-53
2022/06/26 06:00:52;;;;;;;24.05;6.63;;;;;;;14.21;76.85;101339.66;5094009;28;20073;-53
2022/06/26 06:03:18;;;;;;;18.90;6.47;;;;;;;14.25;76.32;101340.84;5094633;28;20115;-53
2022/06/26 06:05:45;;;;;;;23.73;6.80;;;;;;;14.32;76.34;101342.69;5094293;28;20024;-53
2022/06/26 06:08:12;;;;;;;22.17;6.88;;;;;;;14.27;76.82;101340.66;5094355;28;20023;-55
2022/06/26 06:10:38;;;;;;;24.63;6.90;;;;;;;14.34;76.65;101338.75;5094201;28;20472;-55
2022/06/26 06:13:04;;;;;;;25.17;6.40;;;;;;;14.15;77.69;101340.50;5092892;28;20031;-55
2022/06/26 06:15:31;;;;;;;30.45;6.90;;;;;;;14.24;76.96;101324.94;5094068;28;20028;-55
2022/06/26 06:17:57;;;;;;;23.85;6.63;;;;;;;14.10;77.82;101326.06;5094060;28;20417;-53
2022/06/26 06:20:24;;;;;;;18.02;6.78;;;;;;;14.09;77.48;101319.03;5094185;28;20028;-54
2022/06/26 06:23:00;;;;;;;21.13;6.10;;;;;;;14.30;76.77;101331.31;5093989;28;20369;-55
2022/06/26 06:25:26;;;;;;;30.10;6.38;;;;;;;14.23;76.93;101331.38;5094569;28;20065;-55
2022/06/26 06:27:52;;;;;;;26.35;6.65;;;;;;;13.96;77.92;101326.16;5093897;28;20095;-55
2022/06/26 06:30:19;;;;;;;29.83;7.03;;;;;;;13.68;78.85;101329.19;5093743;28;20020;-55
2022/06/26 06:32:48;;;;;;;17.35;6.18;;;;;;;14.03;77.73;101322.59;5093734;28;20036;-55
2022/06/26 06:35:15;;;;;;;26.00;6.95;;;;;;;14.08;77.68;101326.28;5093679;28;20024;-55
2022/06/26 06:37:43;;;;;;;25.27;7.15;;;;;;;14.11;77.68;101320.47;5093786;28;20052;-54
2022/06/26 06:40:11;;;;;;;20.25;6.22;;;;;;;14.10;77.94;101316.13;5093733;28;20038;-54
2022/06/26 06:42:37;;;;;;;28.08;6.80;;;;;;;13.93;78.20;101318.50;5093653;28;20039;-55
2022/06/26 06:45:04;;;;;;;23.20;6.35;;;;;;;14.14;77.75;101325.41;5093452;28;20048;-54
2022/06/26 06:47:31;;;;;;;25.35;7.13;;;;;;;14.17;77.33;101329.53;5092248;28;20365;-53
2022/06/26 06:49:57;;;;;;;23.33;5.85;;;;;;;14.06;77.44;101322.16;5093322;28;20549;-54
2022/06/26 06:52:23;;;;;;;22.25;6.00;;;;;;;13.94;78.60;101335.50;5093736;28;20069;-55
2022/06/26 06:54:49;;;;;;;19.20;5.75;;;;;;;14.07;77.86;101334.56;5093267;28;20055;-53
2022/06/26 06:57:15;;;;;;;26.13;6.63;;;;;;;14.17;77.90;101333.06;5093658;28;20422;-53
2022/06/26 06:59:42;;;;;;;23.95;6.35;;;;;;;14.04;78.10;101345.75;5093532;28;20491;-53
2022/06/26 07:02:08;;;;;;;26.30;6.63;;;;;;;14.15;77.84;101347.75;5093570;28;20465;-54
2022/06/26 07:04:34;;;;;;;20.90;6.72;;;;;;;14.28;77.10;101339.63;5093348;28;20028;-53
2022/06/26 07:07:01;;;;;;;20.90;5.20;;;;;;;14.29;76.83;101341.25;5093333;28;20020;-54
2022/06/26 07:09:27;;;;;;;25.88;6.55;;;;;;;14.29;77.17;101335.88;5093145;28;20461;-54
2022/06/26 07:11:54;;;;;;;21.90;6.07;;;;;;;14.10;77.83;101342.19;5091529;28;20043;-54
2022/06/26 07:14:20;;;;;;;23.15;6.85;;;;;;;14.29;77.31;101340.44;5093447;28;20036;-54
2022/06/26 07:16:47;;;;;;;24.50;5.47;;;;;;;14.39;76.94;101338.91;5093172;28;20023;-53
2022/06/26 07:19:14;;;;;;;18.40;6.13;;;;;;;14.35;76.46;101329.59;5093422;28;20103;-54
2022/06/26 07:21:43;;;;;;;21.27;5.57;;;;;;;14.49;75.55;101336.59;5093575;28;20027;-54
2022/06/26 07:24:11;;;;;;;15.98;5.15;;;;;;;14.48;75.55;101329.53;5093029;28;20020;-55
2022/06/26 07:26:37;;;;;;;15.75;5.43;;;;;;;14.36;76.59;101335.81;5093365;28;20424;-53
2022/06/26 07:29:03;;;;;;;18.08;5.55;;;;;;;14.51;75.99;101331.78;5093360;28;20028;-55
2022/06/26 07:31:30;;;;;;;21.98;5.45;;;;;;;14.51;75.87;101329.09;5095180;28;20460;-53
2022/06/26 07:34:16;;;;;;;23.77;5.93;;;;;;;14.39;76.36;101330.00;5094087;28;20028;-53
2022/06/26 07:36:44;;;;;;;15.20;5.70;;;;;;;14.31;76.56;101336.47;5093188;28;20024;-54
2022/06/26 07:39:15;;;;;;;17.92;5.20;;;;;;;14.03;77.39;101330.66;5093453;28;20457;-53
2022/06/26 07:41:42;;;;;;;17.95;6.30;;;;;;;14.28;76.33;101345.00;5092787;28;20468;-55
2022/06/26 07:44:09;;;;;;;20.98;5.63;;;;;;;14.26;76.66;101336.28;5092596;28;20119;-54
2022/06/26 07:46:36;;;;;;;18.70;5.82;;;;;;;14.24;76.70;101343.78;5092873;28;20026;-55
2022/06/26 07:49:05;;;;;;;19.00;4.93;;;;;;;14.28;76.70;101339.63;5092688;28;20016;-54
2022/06/26 07:51:31;;;;;;;22.92;5.50;;;;;;;14.35;76.41;101335.00;5093443;28;20460;-54
2022/06/26 07:53:57;;;;;;;18.52;5.93;;;;;;;14.41;76.10;101331.44;5092715;28;20510;-53
2022/06/26 07:56:25;;;;;;;22.77;6.32;;;;;;;14.34;76.61;101327.97;5092797;28;20115;-53
2022/06/26 07:58:55;;;;;;;14.68;5.00;;;;;;;14.25;76.51;101319.31;5092670;28;20031;-54
2022/06/26 08:01:22;;;;;;;17.95;5.13;;;;;;;14.29;76.36;101317.03;5093045;28;20016;-54
2022/06/26 08:03:48;;;;;;;15.10;4.90;;;;;;;14.21;76.52;101325.34;5092561;28;20028;-54
2022/06/26 08:06:15;;;;;;;19.40;5.55;;;;;;;14.05;77.33;101332.09;5092649;28;20035;-53
2022/06/26 08:08:42;;;;;;;19.13;5.70;;;;;;;14.11;76.94;101327.72;5092620;28;20077;-52
2022/06/26 08:11:08;;;;;;;19.73;5.45;;;;;;;14.15;76.58;101323.53;5092870;28;20024;-49
2022/06/26 08:13:34;;;;;;;16.52;4.82;;;;;;;14.12;76.83;101327.50;5092500;28;20222;-54
2022/06/26 08:16:00;;;;;;;17.10;4.88;;;;;;;13.84;78.11;101333.25;5092513;28;20016;-54
2022/06/26 08:18:26;;;;;;;14.43;5.47;;;;;;;13.88;78.21;101321.03;5092461;28;20081;-54
2022/06/26 08:20:53;;;;;;;20.75;5.53;;;;;;;13.93;77.97;101326.56;5092681;28;20082;-53
2022/06/26 08:23:19;;;;;;;14.90;4.75;;;;;;;13.91;77.79;101323.28;5093010;28;20027;-55
2022/06/26 08:25:45;;;;;;;15.07;4.60;;;;;;;13.93;77.90;101317.66;5096189;28;20024;-54
2022/06/26 08:28:12;;;;;;;13.65;4.68;;;;;;;13.92;77.78;101319.53;5096331;28;20471;-54
2022/06/26 08:30:38;;;;;;;17.48;5.35;;;;;;;13.96;77.58;101312.69;5096068;28;20102;-54
2022/06/26 08:33:04;;;;;;;15.60;5.10;;;;;;;13.92;78.21;101318.72;5096038;28;20025;-54
2022/06/26 08:35:30;;;;;;;16.60;5.70;;;;;;;14.07;77.52;101318.44;5096977;28;20368;-55
2022/06/26 08:37:57;;;;;;;17.38;4.88;;;;;;;14.04;77.56;101321.53;5096313;28;20358;-54
2022/06/26 08:40:24;;;;;;;19.48;5.47;;;;;;;14.00;78.15;101322.00;5095861;28;20034;-54
2022/06/26 08:42:53;;;;;;;16.80;5.10;;;;;;;13.92;78.31;101318.72;5095881;28;20495;-54
2022/06/26 08:45:21;;;;;;;16.60;5.28;;;;;;;14.02;78.08;101320.94;5095645;28;20130;-53
2022/06/26 08:47:52;;;;;;;13.90;5.07;;;;;;;14.07;77.60;101318.44;5095955;28;20016;-55
2022/06/26 08:50:21;;;;;;;11.77;3.95;;;;;;;13.76;78.50;101320.03;5095673;28;20023;-55
2022/06/26 08:52:50;;;;;;;17.70;4.43;;;;;;;13.84;78.07;101321.69;5095632;28;20024;-53
2022/06/26 08:55:17;;;;;;;12.23;4.78;;;;;;;13.95;77.71;101313.75;5095577;28;20024;-51
2022/06/26 08:57:43;;;;;;;9.00;3.88;;;;;;;13.95;77.25;101313.75;5095692;28;20596;-55
2022/06/26 09:00:10;;;;;;;9.90;4.03;;;;;;;13.96;77.48;101323.47;5095485;28;20028;-55
2022/06/26 09:02:36;;;;;;;17.50;4.13;;;;;;;13.96;77.53;101309.19;5095528;28;20027;-54
2022/06/26 09:05:03;;;;;;;16.48;4.38;;;;;;;14.13;77.27;101317.56;5095812;28;20020;-55
2022/06/26 09:07:29;;;;;;;11.45;4.13;;;;;;;14.27;76.68;101316.44;5096049;28;20068;-54
2022/06/26 09:09:56;;;;;;;8.13;3.75;;;;;;;14.14;76.97;101313.81;5095480;28;20024;-54
2022/06/26 09:12:22;;;;;;;12.02;4.50;;;;;;;13.95;77.40;101308.34;5094010;28;20035;-54
2022/06/26 09:14:52;;;;;;;9.25;3.95;;;;;;;14.02;77.58;101308.31;5095392;28;20048;-54
2022/06/26 09:17:23;;;;;;;14.57;3.90;;;;;;;14.06;77.66;101308.72;5095240;28;20027;-54
2022/06/26 09:19:51;;;;;;;9.38;3.58;;;;;;;14.10;76.98;101309.91;5095372;28;20032;-55
2022/06/26 09:22:17;;;;;;;10.43;4.32;;;;;;;14.07;77.27;101304.97;5095076;28;20424;-55
2022/06/26 09:24:58;;;;;;;11.43;4.20;;;;;;;14.07;77.23;101311.19;5095143;28;20023;-53
2022/06/26 09:27:24;;;;;;;9.02;3.42;;;;;;;13.97;77.50;101308.13;5095062;28;20145;-53
2022/06/26 09:29:54;;;;;;;13.57;3.95;;;;;;;13.93;77.80;101307.72;5095314;28;20097;-53
2022/06/26 09:32:22;;;;;;;15.50;3.90;;;;;;;13.95;77.70;101302.97;5094873;28;20024;-54
2022/06/26 09:34:54;;;;;;;8.15;3.40;;;;;;;14.04;77.63;101305.38;5094817;28;20024;-54
2022/06/26 09:37:22;;;;;;;7.63;2.75;;;;;;;14.16;77.05;101311.75;5094827;28;20027;-54
2022/06/26 09:39:59;;;;;;;5.68;3.17;;;;;;;14.25;76.52;101331.97;5094781;28;20035;-54
2022/06/26 09:42:27;;;;;;;9.60;3.60;;;;;;;14.28;76.68;101328.84;5094925;28;20371;-54
2022/06/26 09:44:55;;;;;;;11.25;3.58;;;;;;;14.30;76.39;101332.13;5094541;28;20048;-55
2022/06/26 09:47:28;;;;;;;7.00;4.20;;;;;;;14.45;75.58;101327.25;5094686;28;20036;-55
2022/06/26 09:49:58;;;;;;;10.13;3.00;;;;;;;14.15;76.56;101327.03;5094635;28;20103;-55
2022/06/26 09:52:27;;;;;;;7.90;3.30;;;;;;;14.23;76.20;101334.88;5094447;28;20039;-55
2022/06/26 09:54:55;;;;;;;8.68;2.85;;;;;;;14.29;75.95;101330.50;5094648;28;20368;-55
2022/06/26 09:57:21;;;;;;;8.10;3.55;;;;;;;14.22;76.33;101321.66;5094410;28;20020;-55
2022/06/26 09:59:48;;;;;;;11.63;3.95;;;;;;;14.42;75.68;101319.59;5094472;28;20077;-55
2022/06/26 10:07:51;;;;;;;9.88;2.83;;;;;;;14.33;75.35;101312.03;5094655;28;20043;-54
2022/06/26 10:10:20;;;;;;;9.13;2.67;;;;;;;14.30;75.10;101313.28;5094345;28;20122;-53
2022/06/26 10:12:52;;;;;;;6.00;2.47;;;;;;;14.35;75.32;101308.06;5094342;28;20126;-55
2022/06/26 10:15:20;;;;;;;8.82;2.80;;;;;;;14.58;74.56;101312.06;5094199;28;20028;-54
2022/06/26 10:18:02;;;;;;;6.20;2.92;;;;;;;14.38;75.15;101314.88;5094253;28;20050;-55
2022/06/26 10:20:31;;;;;;;7.28;2.88;;;;;;;14.45;75.09;101316.47;5094026;28;20503;-54
2022/06/26 10:22:57;;;;;;;7.65;3.03;;;;;;;14.43;74.88;101323.94;5093854;28;20090;-54
2022/06/26 10:25:30;;;;;;;8.15;2.95;;;;;;;14.41;75.37;101320.66;5093796;28;20032;-54
2022/06/26 10:27:58;;;;;;;8.35;3.35;;;;;;;14.31;75.66;101314.94;5094038;28;20027;-54
2022/06/26 10:30:29;;;;;;;8.13;3.03;;;;;;;14.42;75.19;101318.78;5094435;28;20028;-54
2022/06/26 10:33:10;;;;;;;9.50;3.20;;;;;;;14.61;74.42;101317.00;5094645;28;20376;-55
2022/06/26 10:35:38;;;;;;;8.77;3.03;;;;;;;14.45;74.86;101316.47;5093562;28;20020;-54
2022/06/26 10:38:18;;;;;;;3.92;2.25;;;;;;;14.56;74.52;101322.22;5094061;28;20032;-55
2022/06/26 10:44:00;;;;;;;5.13;2.87;;;;;;;14.47;74.82;101322.50;5094108;28;20157;-54
2022/06/26 10:46:38;;;;;;;5.20;2.35;;;;;;;14.36;75.22;101325.88;5092851;28;20032;-54
2022/06/26 10:49:08;;;;;;;8.85;2.90;;;;;;;14.35;75.39;101326.09;5093492;28;20471;-53
2022/06/26 10:51:38;;;;;;;6.65;2.70;;;;;;;14.41;75.16;101325.22;5093669;28;20078;-54
2022/06/26 10:54:04;;;;;;;7.35;2.38;;;;;;;14.50;74.20;101327.47;5093291;28;20028;-55
2022/06/26 10:56:30;;;;;;;8.88;2.72;;;;;;;14.59;74.10;101325.28;5093323;28;20031;-54
2022/06/26 10:59:02;;;;;;;9.60;2.78;;;;;;;14.65;74.05;101328.97;5093481;28;20387;-55
2022/06/26 11:01:28;;;;;;;7.13;2.58;;;;;;;14.57;74.13;101323.88;5093370;28;20095;-54
2022/06/26 11:03:55;;;;;;;4.70;2.60;;;;;;;14.71;73.64;101330.78;5093218;28;20157;-55
2022/06/26 11:06:27;;;;;;;7.40;2.40;;;;;;;14.80;73.16;101326.78;5093211;28;20035;-55
2022/06/26 11:08:54;;;;;;;7.15;3.15;;;;;;;14.77;73.57;101335.31;5093238;28;20353;-54
2022/06/26 11:11:25;;;;;;;8.95;2.75;;;;;;;14.70;73.57;101332.66;5092724;28;20067;-54
2022/06/26 11:13:52;;;;;;;4.43;2.65;;;;;;;14.68;73.74;101329.38;5093230;28;20024;-55
2022/06/26 11:16:28;;;;;;;8.73;3.00;;;;;;;14.76;73.12;101329.06;5093253;28;20476;-55
2022/06/26 11:18:54;;;;;;;7.60;2.92;;;;;;;14.70;73.21;101337.22;5093019;28;20039;-55
2022/06/26 11:21:21;;;;;;;8.27;3.00;;;;;;;14.73;73.20;101343.00;5091761;28;20020;-53
2022/06/26 11:23:51;;;;;;;6.93;3.13;;;;;;;14.82;72.85;101345.41;5093017;28;20437;-55
2022/06/26 11:26:20;;;;;;;8.10;3.78;;;;;;;14.92;72.58;101340.34;5092858;28;20505;-54
2022/06/26 11:28:55;;;;;;;7.30;3.00;;;;;;;14.84;73.13;101338.75;5092884;28;20028;-53
2022/06/26 11:31:26;;;;;;;5.82;2.45;;;;;;;14.60;74.19;101335.00;5092888;28;20024;-55
2022/06/26 11:33:53;;;;;;;9.98;2.72;;;;;;;14.61;74.11;101335.88;5092882;28;20365;-52
2022/06/26 11:36:22;;;;;;;4.63;2.17;;;;;;;14.68;73.70;101339.31;5092934;28;20035;-54